Pagrindinis puslapis
METAR-TAF:

METAR-TAF

Oro uostai :

Kish Island, Iranas

platuma: 26-31-36N, ilguma: 053-58-54E, Aukštis: 30 m

Dabartinis oras

Ataskaita buvo paskelbta 35 minutes, ne 10:00 UTC
Vėjas 14 kt iš Pietų
Temperatūra 35°C
Drėgmė 47%
Slėgis 1004 hPa
Matomumas: 3000 m
dulkės

METAR: OIBK 311000Z 17014KT 3000 DU NSC 35/22 Q1004 NOSIG

Laikas: 15:05 (10:35 UTC)

Prognozė

Ataskaita buvo paskelbta 5 valandos ir 5 minutes, ne 05:30 UTC
Prognozė galioja nuo 31 metu 06 UTC su 01 metu 12 UTC
Vėjas 8 kt iš Pietų/Pietvakarių
Matomumas: 3000 m
migla
Tapsmas
nuo 31 metu 07 UTC su 31 metu 09 UTC
Matomumas: 6000 m
Tapsmas
nuo 31 metu 19 UTC su 31 metu 21 UTC
Matomumas: 3000 m
rūkana
Tikimybė 40%
nuo 31 metu 22 UTC su 01 metu 03 UTC
Matomumas: 1000 m
rūkana
Tapsmas
nuo 01 metu 04 UTC su 01 metu 06 UTC
Matomumas: 6000 m

TAF: OIBK 310530Z 3106/0112 20008KT 3000 HZ NSC BECMG 3107/3109 6000 BECMG 3119/3121 3000 BR PROB40 3122/0103 1000 BR BECMG 0104/0106 6000

Orai ataskaitas ir orų prognozės (METAR, TAF).

turimą stotys yra geltonos ir raudonos taškus žemėlapyje.

Perkelti pele per norėdami pamatyti stoties vardą.

Tada spustelėkite, norėdami matyti oro stebėjimo ir prognozės.

Norėdami pakeisti žemėlapį: spustelėkite ant žalios mygtukų su juodo kryžiaus žemyn,; žalią mygtuką su brūkšneliu, jei norite nutolinti; arba žalių rodyklių gretimoms žemėlapius.


METAR-TAF: